KRBG - Roseburg, Oregon, USA
Updated: Tue, 21-Nov-2017 3:16am PST
Mist, Mostly cloudy
Mist, Mostly cloudy
 Wind from calm
Wind: Calm
Temperature: 52°F , 11°C
Dew Point: 52°F , 11°C
Humidity: 100%
Barometer: 30.02 inHg , 1016.6 hPa
Summary: Mist
Clouds: Mostly Cloudy
Visibility: 1 3/4 miles , 5 km
Cloud details: Mostly Cloudy 100 ft
2017/11/21 11:16 KRBG 211116Z AUTO 00000KT 1 3/4SM BR BKN001 11/11 A3002 RMK AO2 T01110111

Metar display script from Saratoga-Weather.org